createdAt,value
2018-11-25T00:00:18.701Z,97835.81
2018-11-25T00:02:47.608Z,97833.83
2018-11-25T00:05:16.234Z,97828.91
2018-11-25T00:07:44.864Z,97835.98
2018-11-25T00:10:13.429Z,97828.11
2018-11-25T00:12:42.077Z,97833.52
2018-11-25T00:15:11.053Z,97830.27
2018-11-25T00:17:40.012Z,97828.05
2018-11-25T00:20:10.526Z,97821.34
2018-11-25T00:22:39.453Z,97815.71
2018-11-25T00:25:09.596Z,97822.70
2018-11-25T00:27:38.115Z,97815.16
2018-11-25T00:30:09.577Z,97811.97
2018-11-25T00:32:38.271Z,97820.23
2018-11-25T00:35:08.027Z,97813.32
2018-11-25T00:37:36.552Z,97816.27
2018-11-25T00:40:06.893Z,97805.98
2018-11-25T00:42:35.844Z,97803.37
2018-11-25T00:45:05.182Z,97797.72
2018-11-25T00:47:33.854Z,97793.02
2018-11-25T00:50:02.470Z,97803.82
2018-11-25T00:52:31.081Z,97800.75
2018-11-25T00:54:59.658Z,97794.38
2018-11-25T00:57:28.241Z,97793.02
2018-11-25T00:59:56.898Z,97793.18
2018-11-25T01:02:25.481Z,97807.91
2018-11-25T01:04:54.027Z,97798.44
2018-11-25T01:07:22.653Z,97812.13
2018-11-25T01:09:51.222Z,97793.08
2018-11-25T01:12:20.217Z,97792.52
2018-11-25T01:14:48.893Z,97794.52
2018-11-25T01:17:17.401Z,97797.64
2018-11-25T01:19:46.060Z,97789.73
2018-11-25T01:22:14.614Z,97791.25
2018-11-25T01:24:43.296Z,97787.45
2018-11-25T01:27:11.871Z,97788.06
2018-11-25T01:29:40.575Z,97792.52
2018-11-25T01:32:09.551Z,97788.55
2018-11-25T01:34:38.723Z,97783.29
2018-11-25T01:37:07.461Z,97781.58
2018-11-25T01:39:36.465Z,97781.17
2018-11-25T01:42:05.003Z,97783.20
2018-11-25T01:44:33.857Z,97782.57
2018-11-25T01:47:02.386Z,97784.80
2018-11-25T01:49:31.174Z,97782.83
2018-11-25T01:51:59.786Z,97775.83
2018-11-25T01:54:28.355Z,97779.36
2018-11-25T01:56:56.864Z,97786.75
2018-11-25T01:59:25.482Z,97774.00
2018-11-25T02:01:54.109Z,97777.77
2018-11-25T02:04:22.961Z,97774.67
2018-11-25T02:06:51.601Z,97777.20
2018-11-25T02:09:20.429Z,97768.77
2018-11-25T02:11:48.995Z,97760.25
2018-11-25T02:14:17.633Z,97755.32
2018-11-25T02:16:46.630Z,97764.39
2018-11-25T02:19:15.198Z,97755.63
2018-11-25T02:21:43.760Z,97750.09
2018-11-25T02:24:12.857Z,97744.50
2018-11-25T02:26:41.989Z,97747.21
2018-11-25T02:29:10.591Z,97742.05
2018-11-25T02:31:39.933Z,97746.18
2018-11-25T02:34:08.589Z,97742.92
2018-11-25T02:36:37.302Z,97736.23
2018-11-25T02:39:08.508Z,97739.81
2018-11-25T02:41:38.141Z,97741.41
2018-11-25T02:44:06.705Z,97736.56
2018-11-25T02:46:35.352Z,97739.91
2018-11-25T02:49:05.591Z,97732.02
2018-11-25T02:51:34.780Z,97737.19
2018-11-25T02:54:03.312Z,97732.65
2018-11-25T02:56:31.852Z,97729.95
2018-11-25T02:59:00.640Z,97732.50
2018-11-25T03:01:29.164Z,97730.02
2018-11-25T03:03:57.793Z,97734.77
2018-11-25T03:06:26.417Z,97730.74
2018-11-25T03:08:55.585Z,97735.88
2018-11-25T03:11:24.077Z,97730.26
2018-11-25T03:13:52.889Z,97729.77
2018-11-25T03:16:22.510Z,97724.55
2018-11-25T03:18:51.052Z,97726.62
2018-11-25T03:21:19.550Z,97720.80
2018-11-25T03:23:48.253Z,97718.23
2018-11-25T03:26:16.784Z,97717.72
2018-11-25T03:28:45.871Z,97720.24
2018-11-25T03:31:14.471Z,97717.24
2018-11-25T03:33:43.013Z,97715.29
2018-11-25T03:36:11.533Z,97716.22
2018-11-25T03:38:40.184Z,97707.36
2018-11-25T03:41:08.761Z,97709.77
2018-11-25T03:43:37.288Z,97710.59
2018-11-25T03:46:07.895Z,97713.95
2018-11-25T03:48:37.254Z,97711.23
2018-11-25T03:51:05.901Z,97711.97
2018-11-25T03:53:34.426Z,97711.44
2018-11-25T03:56:02.946Z,97716.64
2018-11-25T03:58:31.584Z,97708.79
2018-11-25T04:01:00.128Z,97710.42
2018-11-25T04:03:28.688Z,97707.20
2018-11-25T04:05:57.240Z,97707.86
2018-11-25T04:08:25.925Z,97702.79
2018-11-25T04:10:54.518Z,97708.19
2018-11-25T04:13:23.221Z,97697.80
2018-11-25T04:15:51.817Z,97696.78
2018-11-25T04:18:20.363Z,97690.44
2018-11-25T04:20:49.003Z,97693.08
2018-11-25T04:23:17.602Z,97694.49
2018-11-25T04:25:46.297Z,97691.67
2018-11-25T04:28:14.923Z,97685.36
2018-11-25T04:30:44.025Z,97694.23
2018-11-25T04:33:12.653Z,97692.53
2018-11-25T04:35:42.026Z,97695.76
2018-11-25T04:38:10.665Z,97690.97
2018-11-25T04:40:39.351Z,97693.88
2018-11-25T04:43:08.795Z,97699.56
2018-11-25T04:45:37.325Z,97691.37
2018-11-25T04:48:05.867Z,97681.63
2018-11-25T04:50:35.413Z,97682.00
2018-11-25T04:53:04.276Z,97680.31
2018-11-25T04:55:32.810Z,97679.78
2018-11-25T04:58:01.777Z,97677.69
2018-11-25T05:00:30.702Z,97683.90
2018-11-25T05:02:59.377Z,97683.70
2018-11-25T05:05:28.610Z,97675.98
2018-11-25T05:07:57.233Z,97672.66
2018-11-25T05:10:25.759Z,97671.05
2018-11-25T05:12:54.789Z,97672.00
2018-11-25T05:15:23.896Z,97673.45
2018-11-25T05:17:52.523Z,97671.11
2018-11-25T05:20:21.353Z,97672.16
2018-11-25T05:22:50.248Z,97670.45
2018-11-25T05:25:19.689Z,97669.95
2018-11-25T05:27:48.267Z,97669.23
2018-11-25T05:30:18.847Z,97668.00
2018-11-25T05:32:47.536Z,97661.50
2018-11-25T05:35:17.194Z,97666.66
2018-11-25T05:37:45.801Z,97665.61
2018-11-25T05:40:15.455Z,97661.56
2018-11-25T05:42:44.406Z,97660.95
2018-11-25T05:45:16.179Z,97666.13
2018-11-25T05:47:44.777Z,97666.83
2018-11-25T05:50:16.311Z,97670.14
2018-11-25T05:52:45.419Z,97673.42
2018-11-25T05:55:14.238Z,97670.84
2018-11-25T05:57:43.221Z,97681.05
2018-11-25T06:00:19.605Z,97674.33
2018-11-25T06:02:48.181Z,97671.08
2018-11-25T06:05:16.733Z,97670.02
2018-11-25T06:07:45.265Z,97671.92
2018-11-25T06:10:14.693Z,97674.86
2018-11-25T06:12:43.432Z,97685.41
2018-11-25T06:15:14.362Z,97681.00
2018-11-25T06:17:43.221Z,97673.61
2018-11-25T06:20:14.045Z,97674.83
2018-11-25T06:22:42.730Z,97682.11
2018-11-25T06:25:15.780Z,97682.45
2018-11-25T06:27:44.843Z,97683.95
2018-11-25T06:30:16.363Z,97675.71
2018-11-25T06:32:45.657Z,97681.37
2018-11-25T06:35:15.446Z,97686.92
2018-11-25T06:37:44.040Z,97673.64
2018-11-25T06:40:14.866Z,97682.30
2018-11-25T06:42:43.507Z,97680.13
2018-11-25T06:45:22.034Z,97679.05
2018-11-25T06:47:50.994Z,97679.66
2018-11-25T06:50:19.568Z,97685.78
2018-11-25T06:52:48.348Z,97682.11
2018-11-25T06:55:16.862Z,97685.94
2018-11-25T06:57:45.505Z,97689.20
2018-11-25T07:00:18.098Z,97692.94
2018-11-25T07:02:46.632Z,97694.23
2018-11-25T07:05:15.262Z,97693.97
2018-11-25T07:07:43.939Z,97702.67
2018-11-25T07:10:15.549Z,97695.94
2018-11-25T07:12:44.430Z,97698.88
2018-11-25T07:15:15.031Z,97698.65
2018-11-25T07:17:44.150Z,97695.34
2018-11-25T07:20:14.074Z,97693.98
2018-11-25T07:22:42.758Z,97696.80
2018-11-25T07:25:13.594Z,97700.84
2018-11-25T07:27:42.835Z,97699.61
2018-11-25T07:30:24.530Z,97711.49
2018-11-25T07:32:53.169Z,97704.13
2018-11-25T07:35:22.450Z,97710.51
2018-11-25T07:37:51.012Z,97704.02
2018-11-25T07:40:21.542Z,97710.27
2018-11-25T07:42:50.441Z,97706.73
2018-11-25T07:45:21.197Z,97699.61
2018-11-25T07:47:49.819Z,97699.27
2018-11-25T07:50:18.688Z,97694.09
2018-11-25T07:52:48.228Z,97697.16
2018-11-25T07:55:25.422Z,97700.33
2018-11-25T07:57:55.625Z,97701.56
2018-11-25T08:00:26.605Z,97701.71
2018-11-25T08:02:58.164Z,97692.48
2018-11-25T08:05:27.884Z,97701.75
2018-11-25T08:07:56.626Z,97696.59
2018-11-25T08:10:26.560Z,97697.41
2018-11-25T08:12:57.104Z,97690.08
2018-11-25T08:15:26.686Z,97691.64
2018-11-25T08:17:57.535Z,97691.05
2018-11-25T08:20:27.168Z,97685.14
2018-11-25T08:22:57.333Z,97682.84
2018-11-25T08:25:26.700Z,97680.56
2018-11-25T08:27:55.990Z,97676.52
2018-11-25T08:30:26.275Z,97672.14
2018-11-25T08:32:56.477Z,97672.78
2018-11-25T08:35:25.735Z,97669.72
2018-11-25T08:37:55.475Z,97666.13
2018-11-25T08:40:25.273Z,97663.06
2018-11-25T08:42:54.109Z,97661.07
2018-11-25T08:45:22.779Z,97653.77
2018-11-25T08:47:51.509Z,97654.27
2018-11-25T08:50:20.630Z,97654.49
2018-11-25T08:52:50.436Z,97658.51
2018-11-25T08:55:20.448Z,97652.23
2018-11-25T08:57:49.185Z,97657.40
2018-11-25T09:00:21.522Z,97653.28
2018-11-25T09:02:51.037Z,97651.01
2018-11-25T09:05:20.241Z,97648.06
2018-11-25T09:07:48.878Z,97642.66
2018-11-25T09:10:18.622Z,97633.77
2018-11-25T09:12:55.248Z,97635.81
2018-11-25T09:15:18.730Z,97631.88
2018-11-25T09:17:47.571Z,97627.09
2018-11-25T09:20:17.354Z,97625.85
2018-11-25T09:22:46.021Z,97629.38
2018-11-25T09:25:17.625Z,97622.73
2018-11-25T09:27:46.379Z,97630.20
2018-11-25T09:30:16.278Z,97622.25
2018-11-25T09:32:45.287Z,97625.73
2018-11-25T09:35:13.950Z,97620.82
2018-11-25T09:37:43.377Z,97612.65
2018-11-25T09:40:15.061Z,97610.10
2018-11-25T09:42:43.770Z,97605.66
2018-11-25T09:45:13.524Z,97609.23
2018-11-25T09:47:42.547Z,97598.27
2018-11-25T09:50:15.402Z,97595.41
2018-11-25T09:52:44.126Z,97593.81
2018-11-25T09:55:17.851Z,97581.11
2018-11-25T09:57:48.839Z,97582.30
2018-11-25T10:00:24.445Z,97576.23
2018-11-25T10:02:53.294Z,97585.31
2018-11-25T10:05:22.043Z,97583.00
2018-11-25T10:07:50.907Z,97572.43
2018-11-25T10:10:21.546Z,97577.77
2018-11-25T10:12:50.433Z,97570.77
2018-11-25T10:15:20.652Z,97556.54
2018-11-25T10:17:59.018Z,97554.08
2018-11-25T10:20:24.328Z,97542.80
2018-11-25T10:22:54.154Z,97544.66
2018-11-25T10:25:23.848Z,97545.73
2018-11-25T10:27:53.761Z,97544.89
2018-11-25T10:30:25.191Z,97546.83
2018-11-25T10:33:10.045Z,97538.30
2018-11-25T10:35:39.637Z,97528.25
2018-11-25T10:38:08.627Z,97522.36
2018-11-25T10:40:37.158Z,97518.90
2018-11-25T10:43:05.800Z,97509.81
2018-11-25T10:45:34.977Z,97506.23
2018-11-25T10:48:04.296Z,97500.77
2018-11-25T10:50:32.925Z,97504.98
2018-11-25T10:53:02.025Z,97504.17
2018-11-25T10:55:30.657Z,97495.56
2018-11-25T10:57:59.202Z,97500.17
2018-11-25T11:00:35.141Z,97494.99
2018-11-25T11:03:10.014Z,97486.25
2018-11-25T11:05:44.427Z,97479.98
2018-11-25T11:08:13.066Z,97481.95
2018-11-25T11:10:42.103Z,97476.88
2018-11-25T11:13:11.340Z,97473.94
2018-11-25T11:15:40.130Z,97473.11
2018-11-25T11:18:09.050Z,97464.95
2018-11-25T11:20:37.612Z,97469.30
2018-11-25T11:23:06.915Z,97460.56
2018-11-25T11:25:35.557Z,97459.78
2018-11-25T11:28:04.767Z,97464.37
2018-11-25T11:30:33.998Z,97460.88
2018-11-25T11:33:02.584Z,97453.47
2018-11-25T11:35:31.578Z,97453.59
2018-11-25T11:38:00.259Z,97452.89
2018-11-25T11:40:28.968Z,97451.64
2018-11-25T11:42:57.584Z,97450.46
2018-11-25T11:45:26.292Z,97451.81
2018-11-25T11:47:55.685Z,97447.80
2018-11-25T11:50:42.886Z,97447.56
2018-11-25T11:53:23.276Z,97446.70
2018-11-25T11:55:58.999Z,97448.68
2018-11-25T11:58:33.548Z,97447.86
2018-11-25T12:01:11.390Z,97442.86
2018-11-25T12:03:44.024Z,97438.73
2018-11-25T12:06:22.262Z,97440.71
2018-11-25T12:08:55.989Z,97433.80
2018-11-25T12:11:32.542Z,97426.75
2018-11-25T12:14:07.446Z,97423.80
2018-11-25T12:16:38.750Z,97423.58
2018-11-25T12:19:10.270Z,97429.92
2018-11-25T12:21:39.381Z,97432.36
2018-11-25T12:24:10.121Z,97428.10
2018-11-25T12:26:39.832Z,97429.70
2018-11-25T12:29:10.597Z,97419.12
2018-11-25T12:31:40.623Z,97425.92
2018-11-25T12:34:10.980Z,97421.83
2018-11-25T12:36:43.617Z,97425.66
2018-11-25T12:39:13.399Z,97427.13
2018-11-25T12:41:43.625Z,97427.52
2018-11-25T12:44:13.419Z,97425.66
2018-11-25T12:46:43.347Z,97422.06
2018-11-25T12:49:12.865Z,97415.15
2018-11-25T12:51:42.357Z,97419.39
2018-11-25T12:54:13.034Z,97410.98
2018-11-25T12:56:44.036Z,97411.16
2018-11-25T12:59:12.393Z,97413.52
2018-11-25T13:01:42.557Z,97405.39
2018-11-25T13:04:12.415Z,97394.51
2018-11-25T13:06:42.029Z,97395.03
2018-11-25T13:09:12.411Z,97387.02
2018-11-25T13:11:42.398Z,97387.61
2018-11-25T13:14:14.545Z,97383.34
2018-11-25T13:16:46.138Z,97375.66
2018-11-25T13:19:17.294Z,97376.19
2018-11-25T13:21:48.085Z,97379.78
2018-11-25T13:24:18.162Z,97371.89
2018-11-25T13:26:48.929Z,97365.39
2018-11-25T13:29:20.740Z,97362.20
2018-11-25T13:31:52.023Z,97367.23
2018-11-25T13:34:22.508Z,97367.80
2018-11-25T13:36:52.907Z,97369.13
2018-11-25T13:39:22.729Z,97363.34
2018-11-25T13:41:52.705Z,97361.23
2018-11-25T13:44:24.426Z,97353.59
2018-11-25T13:47:01.470Z,97356.87
2018-11-25T13:49:37.445Z,97358.92
2018-11-25T13:52:13.299Z,97360.27
2018-11-25T13:54:50.261Z,97353.77
2018-11-25T13:57:26.291Z,97349.70
2018-11-25T13:59:56.060Z,97350.43
2018-11-25T14:02:27.595Z,97357.76
2018-11-25T14:04:57.175Z,97353.83
2018-11-25T14:07:26.346Z,97355.31
2018-11-25T14:09:56.880Z,97349.67
2018-11-25T14:12:26.603Z,97359.38
2018-11-25T14:14:57.106Z,97350.05
2018-11-25T14:17:26.777Z,97352.95
2018-11-25T14:19:57.461Z,97352.50
2018-11-25T14:22:28.664Z,97353.41
2018-11-25T14:25:01.618Z,97351.16
2018-11-25T14:27:32.111Z,97348.41
2018-11-25T14:30:03.392Z,97353.83
2018-11-25T14:32:37.443Z,97345.78
2018-11-25T14:35:11.894Z,97344.16
2018-11-25T14:37:42.156Z,97342.60
2018-11-25T14:40:15.503Z,97344.82
2018-11-25T14:42:46.999Z,97338.61
2018-11-25T14:45:19.874Z,97347.86
2018-11-25T14:47:50.337Z,97334.29
2018-11-25T14:50:23.069Z,97345.61
2018-11-25T14:52:53.339Z,97348.13
2018-11-25T14:55:23.371Z,97348.55
2018-11-25T14:57:53.547Z,97345.77
2018-11-25T15:00:26.352Z,97338.77
2018-11-25T15:03:02.380Z,97334.91
2018-11-25T15:05:52.614Z,97337.27
2018-11-25T15:08:23.851Z,97329.48
2018-11-25T15:10:54.335Z,97325.91
2018-11-25T15:13:24.520Z,97320.41
2018-11-25T15:15:54.915Z,97319.83
2018-11-25T15:18:24.072Z,97319.55
2018-11-25T15:20:55.286Z,97313.31
2018-11-25T15:23:25.090Z,97307.52
2018-11-25T15:25:56.206Z,97312.66
2018-11-25T15:28:27.581Z,97305.53
2018-11-25T15:30:56.877Z,97304.29
2018-11-25T15:33:27.249Z,97302.70
2018-11-25T15:35:56.405Z,97296.36
2018-11-25T15:38:27.752Z,97288.05
2018-11-25T15:40:58.866Z,97287.26
2018-11-25T15:43:29.538Z,97280.09
2018-11-25T15:46:03.206Z,97280.22
2018-11-25T15:48:34.142Z,97278.30
2018-11-25T15:51:06.431Z,97275.67
2018-11-25T15:53:35.111Z,97277.52
2018-11-25T15:56:07.077Z,97276.84
2018-11-25T15:58:35.706Z,97270.48
2018-11-25T16:01:04.328Z,97276.39
2018-11-25T16:03:32.915Z,97263.52
2018-11-25T16:06:06.378Z,97265.12
2018-11-25T16:08:38.209Z,97266.37
2018-11-25T16:11:04.220Z,97261.99
2018-11-25T16:13:32.762Z,97259.73
2018-11-25T16:16:01.670Z,97267.28
2018-11-25T16:18:30.310Z,97263.44
2018-11-25T16:20:58.834Z,97257.25
2018-11-25T16:23:28.221Z,97252.28
2018-11-25T16:25:58.961Z,97246.77
2018-11-25T16:28:35.065Z,97251.72
2018-11-25T16:31:03.675Z,97244.63
2018-11-25T16:33:33.398Z,97243.92
2018-11-25T16:36:02.023Z,97245.50
2018-11-25T16:38:30.639Z,97254.44
2018-11-25T16:40:59.821Z,97258.95
2018-11-25T16:43:28.895Z,97258.95
2018-11-25T16:45:57.601Z,97264.90
2018-11-25T16:48:28.015Z,97251.70
2018-11-25T16:50:57.706Z,97266.70
2018-11-25T16:53:26.342Z,97262.66
2018-11-25T16:55:55.533Z,97271.42
2018-11-25T16:58:24.229Z,97273.27
2018-11-25T17:00:53.338Z,97265.95
2018-11-25T17:03:22.747Z,97276.39
2018-11-25T17:05:52.962Z,97278.43
2018-11-25T17:08:29.399Z,97281.80
2018-11-25T17:10:59.308Z,97282.44
2018-11-25T17:13:27.873Z,97290.98
2018-11-25T17:15:56.482Z,97282.91
2018-11-25T17:18:25.025Z,97272.08
2018-11-25T17:20:53.600Z,97280.66
2018-11-25T17:23:22.142Z,97274.83
2018-11-25T17:25:50.839Z,97282.72
2018-11-25T17:28:19.442Z,97274.14
2018-11-25T17:30:48.029Z,97275.47
2018-11-25T17:33:16.657Z,97279.09
2018-11-25T17:35:45.381Z,97274.60
2018-11-25T17:38:13.999Z,97276.61
2018-11-25T17:40:42.613Z,97277.52
2018-11-25T17:43:13.109Z,97281.80
2018-11-25T17:45:41.727Z,97272.77
2018-11-25T17:48:11.911Z,97271.99
2018-11-25T17:50:40.585Z,97268.73
2018-11-25T17:53:10.503Z,97264.90
2018-11-25T17:55:40.252Z,97263.99
2018-11-25T17:58:09.660Z,97268.39
2018-11-25T18:00:42.631Z,97283.86
2018-11-25T18:03:14.237Z,97272.83
2018-11-25T18:05:42.884Z,97273.29
2018-11-25T18:08:12.034Z,97267.17
2018-11-25T18:10:40.724Z,97278.20
2018-11-25T18:13:09.438Z,97276.87
2018-11-25T18:15:39.257Z,97275.64
2018-11-25T18:18:14.571Z,97273.49
2018-11-25T18:20:49.215Z,97276.77
2018-11-25T18:23:17.786Z,97278.89
2018-11-25T18:25:47.566Z,97271.42
2018-11-25T18:28:16.475Z,97281.14
2018-11-25T18:30:46.574Z,97275.53
2018-11-25T18:33:15.163Z,97281.16
2018-11-25T18:35:44.241Z,97280.49
2018-11-25T18:38:12.985Z,97284.11
2018-11-25T18:40:41.662Z,97288.82
2018-11-25T18:43:10.314Z,97286.69
2018-11-25T18:45:39.171Z,97277.55
2018-11-25T18:48:09.749Z,97282.28
2018-11-25T18:50:56.961Z,97276.09
2018-11-25T18:53:25.666Z,97278.20
2018-11-25T18:55:53.256Z,97270.08
2018-11-25T18:58:27.114Z,97270.08
2018-11-25T19:01:04.904Z,97269.18
2018-11-25T19:03:33.934Z,97275.87
2018-11-25T19:06:02.697Z,97278.20
2018-11-25T19:08:31.358Z,97279.57
2018-11-25T19:11:04.672Z,97271.77
2018-11-25T19:13:33.484Z,97269.27
2018-11-25T19:16:11.079Z,97268.73
2018-11-25T19:18:39.943Z,97272.73
2018-11-25T19:21:08.842Z,97268.27
2018-11-25T19:23:42.117Z,97267.56
2018-11-25T19:26:17.243Z,97262.40
2018-11-25T19:34:48.057Z,97269.41
2018-11-25T19:37:38.913Z,97267.89
2018-11-25T19:40:27.643Z,97268.34
2018-11-25T19:42:57.890Z,97271.53
2018-11-25T19:45:29.707Z,97272.10
2018-11-25T19:48:01.171Z,97271.41
2018-11-25T19:50:34.313Z,97263.72
2018-11-25T19:53:05.745Z,97255.61
2018-11-25T19:55:36.848Z,97260.15
2018-11-25T19:58:08.159Z,97255.51
2018-11-25T20:00:40.192Z,97251.98
2018-11-25T20:03:11.440Z,97251.75
2018-11-25T20:05:47.749Z,97250.40
2018-11-25T20:08:18.961Z,97247.03
2018-11-25T20:10:51.850Z,97253.34
2018-11-25T20:13:21.452Z,97256.73
2018-11-25T20:15:50.164Z,97257.75
2018-11-25T20:18:24.642Z,97246.83
2018-11-25T20:20:59.417Z,97245.91
2018-11-25T20:23:28.549Z,97253.81
2018-11-25T20:25:57.181Z,97251.77
2018-11-25T20:28:27.837Z,97253.23
2018-11-25T20:30:57.137Z,97251.55
2018-11-25T20:33:32.426Z,97249.32
2018-11-25T20:36:02.826Z,97249.20
2018-11-25T20:38:37.175Z,97252.94
2018-11-25T20:41:08.850Z,97248.61
2018-11-25T20:43:37.752Z,97250.01
2018-11-25T20:46:12.501Z,97248.86
2018-11-25T20:48:41.707Z,97245.34
2018-11-25T20:51:11.378Z,97245.92
2018-11-25T20:53:45.648Z,97248.66
2018-11-25T20:56:14.654Z,97245.88
2018-11-25T20:58:43.307Z,97247.03
2018-11-25T21:01:11.913Z,97247.23
2018-11-25T21:03:40.535Z,97244.33
2018-11-25T21:06:09.168Z,97241.36
2018-11-25T21:08:37.867Z,97244.91
2018-11-25T21:11:06.797Z,97244.07
2018-11-25T21:13:35.344Z,97245.22
2018-11-25T21:16:04.130Z,97243.17
2018-11-25T21:18:32.649Z,97241.19
2018-11-25T21:21:01.172Z,97240.39
2018-11-25T21:23:30.043Z,97238.09
2018-11-25T21:26:00.481Z,97238.86
2018-11-25T21:28:29.184Z,97235.82
2018-11-25T21:30:57.798Z,97238.86
2018-11-25T21:33:26.758Z,97236.16
2018-11-25T21:35:56.160Z,97236.13
2018-11-25T21:38:25.166Z,97239.06
2018-11-25T21:40:54.325Z,97241.99
2018-11-25T21:43:23.310Z,97239.48
2018-11-25T21:45:52.179Z,97244.04
2018-11-25T21:48:21.718Z,97243.11
2018-11-25T21:50:50.593Z,97243.55
2018-11-25T21:53:19.367Z,97242.19
2018-11-25T21:58:17.529Z,97237.17
2018-11-25T22:00:46.482Z,97248.06
2018-11-25T22:03:16.093Z,97245.12
2018-11-25T22:05:44.861Z,97245.36
2018-11-25T22:08:13.913Z,97239.06
2018-11-25T22:10:42.947Z,97238.56
2018-11-25T22:13:12.374Z,97232.66
2018-11-25T22:15:42.238Z,97231.04
2018-11-25T22:18:11.003Z,97225.73
2018-11-25T22:20:40.021Z,97234.27
2018-11-25T22:23:08.858Z,97235.20
2018-11-25T22:25:37.628Z,97239.41
2018-11-25T22:28:06.832Z,97231.61
2018-11-25T22:30:35.508Z,97239.41
2018-11-25T22:33:04.305Z,97231.30
2018-11-25T22:35:34.025Z,97238.98
2018-11-25T22:38:02.801Z,97235.59
2018-11-25T22:40:31.476Z,97230.64
2018-11-25T22:43:00.165Z,97238.05
2018-11-25T22:45:28.771Z,97239.22
2018-11-25T22:47:57.501Z,97235.49
2018-11-25T22:50:27.895Z,97233.77
2018-11-25T22:52:56.847Z,97238.17
2018-11-25T22:55:26.936Z,97240.73
2018-11-25T22:57:55.918Z,97238.56
2018-11-25T23:00:31.143Z,97232.55
2018-11-25T23:02:59.713Z,97230.33
2018-11-25T23:05:39.469Z,97235.63
2018-11-25T23:08:08.023Z,97230.80
2018-11-25T23:10:38.868Z,97237.55
2018-11-25T23:13:09.401Z,97238.02
2018-11-25T23:15:38.521Z,97242.96
2018-11-25T23:18:09.266Z,97238.29
2018-11-25T23:20:38.255Z,97244.39
2018-11-25T23:23:08.208Z,97236.78
2018-11-25T23:25:37.149Z,97233.34
2018-11-25T23:28:06.574Z,97234.92
2018-11-25T23:30:35.310Z,97227.05
2018-11-25T23:33:04.780Z,97227.70
2018-11-25T23:35:34.484Z,97224.08
2018-11-25T23:38:03.020Z,97230.14
2018-11-25T23:40:31.597Z,97230.32
2018-11-25T23:43:00.182Z,97224.03
2018-11-25T23:45:28.741Z,97226.97
2018-11-25T23:47:57.397Z,97227.20
2018-11-25T23:50:26.011Z,97228.73
2018-11-25T23:52:54.694Z,97225.14
2018-11-25T23:55:23.233Z,97225.39
2018-11-25T23:57:51.778Z,97215.84
